sensor_id;sensor_type;location;lat;lon;timestamp;pressure;altitude;pressure_sealevel;temperature;humidity
11912;BME280;6016;41.928;25.556;2023-04-07T00:01:33;98855.19;;;7.98;47.30
11912;BME280;6016;41.928;25.556;2023-04-07T00:03:59;98850.25;;;8.05;51.24
11912;BME280;6016;41.928;25.556;2023-04-07T00:06:28;98793.13;;;7.97;48.00
11912;BME280;6016;41.928;25.556;2023-04-07T00:08:55;98567.69;;;6.58;48.22
11912;BME280;6016;41.928;25.556;2023-04-07T00:11:21;98850.81;;;8.09;46.79
11912;BME280;6016;41.928;25.556;2023-04-07T00:13:48;98794.03;;;7.65;49.55
11912;BME280;6016;41.928;25.556;2023-04-07T00:16:15;98851.22;;;8.35;52.96
11912;BME280;6016;41.928;25.556;2023-04-07T00:18:42;98779.38;;;7.84;46.33
11912;BME280;6016;41.928;25.556;2023-04-07T00:21:09;98731.31;;;7.62;48.22
11912;BME280;6016;41.928;25.556;2023-04-07T00:23:37;98847.03;;;8.33;48.97
11912;BME280;6016;41.928;25.556;2023-04-07T00:26:04;98848.84;;;8.32;46.77
11912;BME280;6016;41.928;25.556;2023-04-07T00:28:30;98838.84;;;7.95;48.46
11912;BME280;6016;41.928;25.556;2023-04-07T00:30:58;98809.34;;;7.60;46.45
11912;BME280;6016;41.928;25.556;2023-04-07T00:33:25;98750.81;;;7.48;48.93
11912;BME280;6016;41.928;25.556;2023-04-07T00:35:51;98848.66;;;8.24;48.97
11912;BME280;6016;41.928;25.556;2023-04-07T00:38:19;98846.75;;;8.26;50.16
11912;BME280;6016;41.928;25.556;2023-04-07T00:40:47;98808.03;;;7.97;45.53
11912;BME280;6016;41.928;25.556;2023-04-07T00:43:14;98834.53;;;8.15;46.58
11912;BME280;6016;41.928;25.556;2023-04-07T00:45:41;98798.31;;;7.87;45.64
11912;BME280;6016;41.928;25.556;2023-04-07T00:48:09;98743.06;;;7.68;46.52
11912;BME280;6016;41.928;25.556;2023-04-07T00:50:36;98864.66;;;8.42;47.64
11912;BME280;6016;41.928;25.556;2023-04-07T00:53:03;98617.66;;;6.67;46.05
11912;BME280;6016;41.928;25.556;2023-04-07T00:55:32;98867.94;;;8.34;49.42
11912;BME280;6016;41.928;25.556;2023-04-07T00:58:00;98845.44;;;8.10;46.18
11912;BME280;6016;41.928;25.556;2023-04-07T01:00:30;98690.34;;;7.07;47.13
11912;BME280;6016;41.928;25.556;2023-04-07T01:03:03;98788.91;;;7.64;46.47
11912;BME280;6016;41.928;25.556;2023-04-07T01:05:37;98822.16;;;7.74;45.44
11912;BME280;6016;41.928;25.556;2023-04-07T01:08:13;98851.88;;;8.27;45.46
11912;BME280;6016;41.928;25.556;2023-04-07T01:10:47;98722.34;;;7.43;48.99
11912;BME280;6016;41.928;25.556;2023-04-07T01:13:22;98664.84;;;7.30;48.70
11912;BME280;6016;41.928;25.556;2023-04-07T01:15:51;98790.34;;;7.99;46.03
11912;BME280;6016;41.928;25.556;2023-04-07T01:18:25;98514.06;;;6.41;46.37
11912;BME280;6016;41.928;25.556;2023-04-07T01:20:55;98853.16;;;8.64;46.67
11912;BME280;6016;41.928;25.556;2023-04-07T01:23:36;98799.47;;;7.73;44.48
11912;BME280;6016;41.928;25.556;2023-04-07T01:26:17;98891.78;;;8.42;44.92
11912;BME280;6016;41.928;25.556;2023-04-07T01:29:03;98869.31;;;8.28;45.56
11912;BME280;6016;41.928;25.556;2023-04-07T01:31:36;98871.53;;;8.33;51.13
11912;BME280;6016;41.928;25.556;2023-04-07T01:34:05;98842.63;;;8.33;48.50
11912;BME280;6016;41.928;25.556;2023-04-07T01:36:35;98876.56;;;8.67;45.92
11912;BME280;6016;41.928;25.556;2023-04-07T01:39:02;98874.41;;;8.51;49.70
11912;BME280;6016;41.928;25.556;2023-04-07T01:41:30;98851.78;;;8.39;53.05
11912;BME280;6016;41.928;25.556;2023-04-07T01:43:58;98878.06;;;8.39;47.24
11912;BME280;6016;41.928;25.556;2023-04-07T01:46:26;98870.53;;;8.24;46.22
11912;BME280;6016;41.928;25.556;2023-04-07T01:48:56;98818.47;;;8.08;48.50
11912;BME280;6016;41.928;25.556;2023-04-07T01:51:24;98089.38;;;3.40;45.34
11912;BME280;6016;41.928;25.556;2023-04-07T01:53:52;98873.97;;;8.25;46.16
11912;BME280;6016;41.928;25.556;2023-04-07T01:56:19;98803.81;;;7.84;46.55
11912;BME280;6016;41.928;25.556;2023-04-07T01:58:46;98419.75;;;5.45;47.13
11912;BME280;6016;41.928;25.556;2023-04-07T02:01:13;98866.25;;;8.23;46.98
11912;BME280;6016;41.928;25.556;2023-04-07T02:03:44;98882.66;;;8.47;46.27
11912;BME280;6016;41.928;25.556;2023-04-07T02:06:18;98885.03;;;8.50;46.33
11912;BME280;6016;41.928;25.556;2023-04-07T02:08:49;98834.84;;;8.22;45.19
11912;BME280;6016;41.928;25.556;2023-04-07T02:11:19;98873.81;;;8.48;46.53
11912;BME280;6016;41.928;25.556;2023-04-07T02:13:48;98883.19;;;8.62;47.08
11912;BME280;6016;41.928;25.556;2023-04-07T02:16:17;98616.22;;;7.05;49.92
11912;BME280;6016;41.928;25.556;2023-04-07T02:18:46;98883.09;;;8.73;45.74
11912;BME280;6016;41.928;25.556;2023-04-07T02:21:15;98877.56;;;8.76;45.27
11912;BME280;6016;41.928;25.556;2023-04-07T02:23:43;98883.53;;;8.88;46.58
11912;BME280;6016;41.928;25.556;2023-04-07T02:26:10;98879.50;;;8.84;47.46
11912;BME280;6016;41.928;25.556;2023-04-07T02:28:37;98883.81;;;8.85;46.30
11912;BME280;6016;41.928;25.556;2023-04-07T02:31:04;98880.09;;;8.97;45.39
11912;BME280;6016;41.928;25.556;2023-04-07T02:33:31;98887.44;;;9.04;47.30
11912;BME280;6016;41.928;25.556;2023-04-07T02:35:58;98890.22;;;8.92;45.17
11912;BME280;6016;41.928;25.556;2023-04-07T02:38:26;98760.66;;;7.77;46.44
11912;BME280;6016;41.928;25.556;2023-04-07T02:40:53;98888.50;;;8.81;45.91
11912;BME280;6016;41.928;25.556;2023-04-07T02:43:20;98801.63;;;7.89;50.80
11912;BME280;6016;41.928;25.556;2023-04-07T02:45:47;98607.97;;;7.10;45.25
11912;BME280;6016;41.928;25.556;2023-04-07T02:48:14;98734.56;;;7.76;46.54
11912;BME280;6016;41.928;25.556;2023-04-07T02:50:41;98767.84;;;8.06;46.42
11912;BME280;6016;41.928;25.556;2023-04-07T02:53:07;98899.59;;;8.95;48.43
11912;BME280;6016;41.928;25.556;2023-04-07T02:55:36;98900.88;;;9.00;47.94
11912;BME280;6016;41.928;25.556;2023-04-07T02:58:02;98846.28;;;8.83;47.28
11912;BME280;6016;41.928;25.556;2023-04-07T03:00:29;98745.88;;;8.07;47.36
11912;BME280;6016;41.928;25.556;2023-04-07T03:02:56;98881.88;;;8.87;44.17
11912;BME280;6016;41.928;25.556;2023-04-07T03:05:23;98892.75;;;8.72;46.47
11912;BME280;6016;41.928;25.556;2023-04-07T03:07:50;98900.50;;;8.43;44.34
11912;BME280;6016;41.928;25.556;2023-04-07T03:10:17;98902.16;;;8.44;47.24
11912;BME280;6016;41.928;25.556;2023-04-07T03:12:48;98777.38;;;7.76;51.61
11912;BME280;6016;41.928;25.556;2023-04-07T03:15:15;98825.06;;;8.02;45.47
11912;BME280;6016;41.928;25.556;2023-04-07T03:17:42;98768.16;;;7.60;45.10
11912;BME280;6016;41.928;25.556;2023-04-07T03:20:09;98896.44;;;8.60;45.92
11912;BME280;6016;41.928;25.556;2023-04-07T03:22:36;98898.56;;;8.66;50.03
11912;BME280;6016;41.928;25.556;2023-04-07T03:25:03;98903.63;;;8.58;44.77
11912;BME280;6016;41.928;25.556;2023-04-07T03:27:30;98734.81;;;7.51;45.47
11912;BME280;6016;41.928;25.556;2023-04-07T03:29:58;98911.69;;;8.14;46.40
11912;BME280;6016;41.928;25.556;2023-04-07T03:32:25;98802.34;;;7.70;45.17
11912;BME280;6016;41.928;25.556;2023-04-07T03:34:52;98898.53;;;8.35;47.04
11912;BME280;6016;41.928;25.556;2023-04-07T03:37:19;98764.09;;;7.46;49.56
11912;BME280;6016;41.928;25.556;2023-04-07T03:39:45;98903.50;;;8.38;48.80
11912;BME280;6016;41.928;25.556;2023-04-07T03:42:13;98887.03;;;8.36;45.29
11912;BME280;6016;41.928;25.556;2023-04-07T03:44:40;98906.94;;;8.50;46.78
11912;BME280;6016;41.928;25.556;2023-04-07T03:47:08;98710.53;;;7.28;45.38
11912;BME280;6016;41.928;25.556;2023-04-07T03:49:35;98807.84;;;7.88;47.19
11912;BME280;6016;41.928;25.556;2023-04-07T03:52:03;98919.16;;;8.61;45.68
11912;BME280;6016;41.928;25.556;2023-04-07T03:54:30;98923.59;;;8.61;45.63
11912;BME280;6016;41.928;25.556;2023-04-07T03:56:57;98863.94;;;8.09;44.80
11912;BME280;6016;41.928;25.556;2023-04-07T03:59:24;98838.59;;;7.77;44.97
11912;BME280;6016;41.928;25.556;2023-04-07T04:01:51;98919.66;;;8.34;45.33
11912;BME280;6016;41.928;25.556;2023-04-07T04:04:19;98928.19;;;8.47;47.45
11912;BME280;6016;41.928;25.556;2023-04-07T04:06:46;98901.75;;;8.18;44.52
11912;BME280;6016;41.928;25.556;2023-04-07T04:09:13;98905.97;;;8.09;45.69
11912;BME280;6016;41.928;25.556;2023-04-07T04:11:40;98803.91;;;7.52;44.94
11912;BME280;6016;41.928;25.556;2023-04-07T04:14:06;98930.88;;;8.14;44.89
11912;BME280;6016;41.928;25.556;2023-04-07T04:16:33;98905.53;;;8.03;45.19
11912;BME280;6016;41.928;25.556;2023-04-07T04:19:01;98880.34;;;7.58;45.51
11912;BME280;6016;41.928;25.556;2023-04-07T04:21:29;98948.66;;;8.22;49.27
11912;BME280;6016;41.928;25.556;2023-04-07T04:23:56;98945.56;;;8.38;45.86
11912;BME280;6016;41.928;25.556;2023-04-07T04:26:23;98826.22;;;7.46;45.49
11912;BME280;6016;41.928;25.556;2023-04-07T04:28:50;98950.97;;;8.37;45.62
11912;BME280;6016;41.928;25.556;2023-04-07T04:31:17;98951.13;;;8.45;45.65
11912;BME280;6016;41.928;25.556;2023-04-07T04:33:44;98755.91;;;7.40;45.62
11912;BME280;6016;41.928;25.556;2023-04-07T04:36:11;98945.34;;;8.72;44.54
11912;BME280;6016;41.928;25.556;2023-04-07T04:38:39;98957.72;;;8.82;44.65
11912;BME280;6016;41.928;25.556;2023-04-07T04:41:06;98948.97;;;8.81;45.41
11912;BME280;6016;41.928;25.556;2023-04-07T04:43:32;98952.59;;;8.80;43.98
11912;BME280;6016;41.928;25.556;2023-04-07T04:46:00;98952.81;;;8.67;46.99
11912;BME280;6016;41.928;25.556;2023-04-07T04:48:26;98951.69;;;8.70;44.71
11912;BME280;6016;41.928;25.556;2023-04-07T04:50:53;98959.34;;;8.73;43.75
11912;BME280;6016;41.928;25.556;2023-04-07T04:53:20;98959.69;;;8.90;48.15
11912;BME280;6016;41.928;25.556;2023-04-07T04:55:48;98847.47;;;8.28;47.67
11912;BME280;6016;41.928;25.556;2023-04-07T04:58:16;98967.56;;;8.90;43.85
11912;BME280;6016;41.928;25.556;2023-04-07T05:00:43;98799.72;;;7.70;44.20
11912;BME280;6016;41.928;25.556;2023-04-07T05:03:10;98925.19;;;8.30;43.95
11912;BME280;6016;41.928;25.556;2023-04-07T05:05:37;98977.28;;;8.68;44.89
11912;BME280;6016;41.928;25.556;2023-04-07T05:08:04;98897.31;;;7.97;45.88
11912;BME280;6016;41.928;25.556;2023-04-07T05:10:31;98957.19;;;8.57;44.56
11912;BME280;6016;41.928;25.556;2023-04-07T05:12:59;98919.66;;;8.34;44.41
11912;BME280;6016;41.928;25.556;2023-04-07T05:15:26;98988.56;;;8.37;50.92
11912;BME280;6016;41.928;25.556;2023-04-07T05:17:53;98988.44;;;8.39;44.37
11912;BME280;6016;41.928;25.556;2023-04-07T05:20:20;98994.28;;;8.42;46.55
11912;BME280;6016;41.928;25.556;2023-04-07T05:22:47;98940.56;;;8.14;45.47
11912;BME280;6016;41.928;25.556;2023-04-07T05:25:14;98890.63;;;8.04;44.62
11912;BME280;6016;41.928;25.556;2023-04-07T05:27:41;98998.13;;;8.81;44.63
11912;BME280;6016;41.928;25.556;2023-04-07T05:30:10;98890.31;;;8.28;47.61
11912;BME280;6016;41.928;25.556;2023-04-07T05:32:37;98988.69;;;8.78;43.81
11912;BME280;6016;41.928;25.556;2023-04-07T05:35:04;99004.81;;;8.95;52.63
11912;BME280;6016;41.928;25.556;2023-04-07T05:37:31;98803.63;;;7.76;47.59
11912;BME280;6016;41.928;25.556;2023-04-07T05:39:58;99001.59;;;9.12;43.48
11912;BME280;6016;41.928;25.556;2023-04-07T05:42:24;98985.50;;;9.06;42.99
11912;BME280;6016;41.928;25.556;2023-04-07T05:44:51;98896.66;;;8.47;42.67
11912;BME280;6016;41.928;25.556;2023-04-07T05:47:20;99001.53;;;9.03;42.37
11912;BME280;6016;41.928;25.556;2023-04-07T05:49:46;98228.75;;;3.82;42.38
11912;BME280;6016;41.928;25.556;2023-04-07T05:52:13;99020.31;;;8.88;41.90
11912;BME280;6016;41.928;25.556;2023-04-07T05:54:40;99003.44;;;8.91;42.81
11912;BME280;6016;41.928;25.556;2023-04-07T05:57:07;99004.47;;;9.09;45.95
11912;BME280;6016;41.928;25.556;2023-04-07T05:59:34;99004.25;;;9.22;43.80
11912;BME280;6016;41.928;25.556;2023-04-07T06:02:01;99010.66;;;9.29;50.75
11912;BME280;6016;41.928;25.556;2023-04-07T06:04:30;99005.84;;;9.45;42.48
11912;BME280;6016;41.928;25.556;2023-04-07T06:06:58;98945.94;;;8.76;42.00
11912;BME280;6016;41.928;25.556;2023-04-07T06:09:25;98979.97;;;9.09;46.32
11912;BME280;6016;41.928;25.556;2023-04-07T06:11:52;99007.31;;;9.27;43.89
11912;BME280;6016;41.928;25.556;2023-04-07T06:14:18;99012.03;;;9.24;41.49
11912;BME280;6016;41.928;25.556;2023-04-07T06:16:45;99010.22;;;9.34;43.55
11912;BME280;6016;41.928;25.556;2023-04-07T06:19:12;99010.28;;;9.44;41.10
11912;BME280;6016;41.928;25.556;2023-04-07T06:21:40;99012.50;;;9.49;43.34
11912;BME280;6016;41.928;25.556;2023-04-07T06:24:07;99023.06;;;9.59;44.08
11912;BME280;6016;41.928;25.556;2023-04-07T06:26:34;99018.50;;;9.70;46.38
11912;BME280;6016;41.928;25.556;2023-04-07T06:29:01;98994.22;;;9.67;45.10
11912;BME280;6016;41.928;25.556;2023-04-07T06:31:28;98949.16;;;9.31;41.64
11912;BME280;6016;41.928;25.556;2023-04-07T06:33:55;98949.97;;;9.21;41.44
11912;BME280;6016;41.928;25.556;2023-04-07T06:36:21;99026.97;;;9.84;42.47
11912;BME280;6016;41.928;25.556;2023-04-07T06:38:50;99020.44;;;9.78;41.47
11912;BME280;6016;41.928;25.556;2023-04-07T06:41:17;99027.81;;;9.75;41.24
11912;BME280;6016;41.928;25.556;2023-04-07T06:43:45;99028.06;;;9.71;42.70
11912;BME280;6016;41.928;25.556;2023-04-07T06:46:13;99031.13;;;9.87;40.26
11912;BME280;6016;41.928;25.556;2023-04-07T06:48:39;99036.69;;;9.93;41.08
11912;BME280;6016;41.928;25.556;2023-04-07T06:51:06;99036.13;;;9.80;40.13
11912;BME280;6016;41.928;25.556;2023-04-07T06:53:34;98961.06;;;9.25;41.31
11912;BME280;6016;41.928;25.556;2023-04-07T06:56:06;99047.63;;;9.98;41.27
11912;BME280;6016;41.928;25.556;2023-04-07T06:58:33;99052.22;;;9.77;40.15
11912;BME280;6016;41.928;25.556;2023-04-07T07:01:00;99048.53;;;9.48;39.48
11912;BME280;6016;41.928;25.556;2023-04-07T07:03:28;99044.13;;;9.59;39.92
11912;BME280;6016;41.928;25.556;2023-04-07T07:05:56;99025.25;;;9.53;38.91
11912;BME280;6016;41.928;25.556;2023-04-07T07:08:23;99007.41;;;9.67;40.22
11912;BME280;6016;41.928;25.556;2023-04-07T07:10:50;99045.00;;;9.79;38.83
11912;BME280;6016;41.928;25.556;2023-04-07T07:13:20;99059.84;;;9.90;39.06
11912;BME280;6016;41.928;25.556;2023-04-07T07:15:48;98977.44;;;9.58;39.26
11912;BME280;6016;41.928;25.556;2023-04-07T07:18:15;99067.94;;;10.27;40.20
11912;BME280;6016;41.928;25.556;2023-04-07T07:20:42;99029.88;;;9.20;38.43
11912;BME280;6016;41.928;25.556;2023-04-07T07:23:09;99066.25;;;10.07;39.24
11912;BME280;6016;41.928;25.556;2023-04-07T07:25:36;99074.44;;;10.04;39.24
11912;BME280;6016;41.928;25.556;2023-04-07T07:28:03;98985.44;;;9.37;38.85
11912;BME280;6016;41.928;25.556;2023-04-07T07:30:31;98997.50;;;9.29;39.33
11912;BME280;6016;41.928;25.556;2023-04-07T07:32:58;98870.38;;;8.78;39.21
11912;BME280;6016;41.928;25.556;2023-04-07T07:35:25;99094.66;;;9.83;41.10
11912;BME280;6016;41.928;25.556;2023-04-07T07:37:51;99018.06;;;9.55;39.93
11912;BME280;6016;41.928;25.556;2023-04-07T07:40:18;99067.75;;;9.90;41.71
11912;BME280;6016;41.928;25.556;2023-04-07T07:42:45;99089.84;;;10.18;43.09
11912;BME280;6016;41.928;25.556;2023-04-07T07:45:12;99087.31;;;10.07;39.87
11912;BME280;6016;41.928;25.556;2023-04-07T07:47:40;99097.06;;;10.16;44.47
11912;BME280;6016;41.928;25.556;2023-04-07T07:50:08;99008.53;;;9.74;40.16
11912;BME280;6016;41.928;25.556;2023-04-07T07:52:34;99048.22;;;10.02;47.13
11912;BME280;6016;41.928;25.556;2023-04-07T07:55:01;99095.44;;;10.54;39.39
11912;BME280;6016;41.928;25.556;2023-04-07T07:57:28;99099.59;;;10.67;39.90
11912;BME280;6016;41.928;25.556;2023-04-07T07:59:56;99049.31;;;10.29;38.95
11912;BME280;6016;41.928;25.556;2023-04-07T08:02:23;99031.84;;;9.98;39.54
11912;BME280;6016;41.928;25.556;2023-04-07T08:04:56;98942.53;;;9.66;39.98
11912;BME280;6016;41.928;25.556;2023-04-07T08:07:23;99099.72;;;10.75;40.04
11912;BME280;6016;41.928;25.556;2023-04-07T08:09:50;98954.47;;;9.80;38.90
11912;BME280;6016;41.928;25.556;2023-04-07T08:12:17;99103.19;;;10.76;39.38
11912;BME280;6016;41.928;25.556;2023-04-07T08:14:44;99108.47;;;10.76;39.05
11912;BME280;6016;41.928;25.556;2023-04-07T08:17:11;99106.09;;;10.82;39.20
11912;BME280;6016;41.928;25.556;2023-04-07T08:19:37;99022.56;;;10.14;40.41
11912;BME280;6016;41.928;25.556;2023-04-07T08:22:06;99088.41;;;11.03;41.44
11912;BME280;6016;41.928;25.556;2023-04-07T08:24:32;99100.72;;;11.22;40.40
11912;BME280;6016;41.928;25.556;2023-04-07T08:26:59;99096.31;;;11.50;38.67
11912;BME280;6016;41.928;25.556;2023-04-07T08:29:26;99092.69;;;11.79;38.69
11912;BME280;6016;41.928;25.556;2023-04-07T08:31:53;99086.88;;;11.94;37.35
11912;BME280;6016;41.928;25.556;2023-04-07T08:34:20;99043.09;;;11.91;38.43
11912;BME280;6016;41.928;25.556;2023-04-07T08:36:47;99039.97;;;12.06;38.74
11912;BME280;6016;41.928;25.556;2023-04-07T08:39:15;99092.69;;;12.44;37.05
11912;BME280;6016;41.928;25.556;2023-04-07T08:45:05;99025.00;;;12.15;38.45
11912;BME280;6016;41.928;25.556;2023-04-07T08:47:34;99086.19;;;12.56;35.96
11912;BME280;6016;41.928;25.556;2023-04-07T08:50:03;99083.63;;;13.17;35.49
11912;BME280;6016;41.928;25.556;2023-04-07T08:52:33;99048.91;;;13.55;34.02
11912;BME280;6016;41.928;25.556;2023-04-07T08:55:03;99080.84;;;14.13;31.95
11912;BME280;6016;41.928;25.556;2023-04-07T08:57:32;99079.88;;;14.23;31.79
11912;BME280;6016;41.928;25.556;2023-04-07T09:00:00;99007.66;;;13.53;32.64
11912;BME280;6016;41.928;25.556;2023-04-07T09:02:31;99077.88;;;14.25;33.54
11912;BME280;6016;41.928;25.556;2023-04-07T09:04:58;98937.44;;;13.48;33.40
11912;BME280;6016;41.928;25.556;2023-04-07T09:07:26;99080.56;;;14.41;32.55
11912;BME280;6016;41.928;25.556;2023-04-07T09:09:54;99065.28;;;14.35;34.69
11912;BME280;6016;41.928;25.556;2023-04-07T09:12:22;99028.50;;;14.32;32.62
11912;BME280;6016;41.928;25.556;2023-04-07T09:14:49;99093.13;;;15.14;33.74
11912;BME280;6016;41.928;25.556;2023-04-07T09:17:16;99080.84;;;15.13;34.00
11912;BME280;6016;41.928;25.556;2023-04-07T09:19:43;99069.78;;;14.68;37.73
11912;BME280;6016;41.928;25.556;2023-04-07T09:22:10;99079.59;;;14.42;37.17
11912;BME280;6016;41.928;25.556;2023-04-07T09:24:39;99032.94;;;14.06;34.85
11912;BME280;6016;41.928;25.556;2023-04-07T09:27:10;98953.06;;;13.33;33.62
11912;BME280;6016;41.928;25.556;2023-04-07T09:29:39;99022.03;;;14.10;35.43
11912;BME280;6016;41.928;25.556;2023-04-07T09:32:07;99039.41;;;14.95;35.10
11912;BME280;6016;41.928;25.556;2023-04-07T09:34:35;99063.03;;;15.30;31.59
11912;BME280;6016;41.928;25.556;2023-04-07T09:37:04;99032.09;;;14.97;31.41
11912;BME280;6016;41.928;25.556;2023-04-07T09:39:31;99063.19;;;15.28;32.66
11912;BME280;6016;41.928;25.556;2023-04-07T09:42:05;99012.38;;;14.67;31.48
11912;BME280;6016;41.928;25.556;2023-04-07T09:44:39;98984.34;;;14.47;32.32
11912;BME280;6016;41.928;25.556;2023-04-07T09:47:06;99065.19;;;15.35;31.74
11912;BME280;6016;41.928;25.556;2023-04-07T09:49:47;99055.34;;;15.83;34.35
11912;BME280;6016;41.928;25.556;2023-04-07T09:52:14;99058.47;;;16.19;31.51
11912;BME280;6016;41.928;25.556;2023-04-07T09:54:42;99038.72;;;16.13;30.37
11912;BME280;6016;41.928;25.556;2023-04-07T09:57:11;98982.53;;;15.53;30.74
11912;BME280;6016;41.928;25.556;2023-04-07T09:59:40;98898.53;;;14.72;31.54
11912;BME280;6016;41.928;25.556;2023-04-07T10:02:09;99017.66;;;15.40;31.96
11912;BME280;6016;41.928;25.556;2023-04-07T10:04:36;99056.84;;;15.46;32.81
11912;BME280;6016;41.928;25.556;2023-04-07T10:07:04;99053.97;;;15.56;32.90
11912;BME280;6016;41.928;25.556;2023-04-07T10:09:31;98871.97;;;14.15;31.82
11912;BME280;6016;41.928;25.556;2023-04-07T10:11:58;99064.16;;;14.87;32.90
11912;BME280;6016;41.928;25.556;2023-04-07T10:14:26;99060.00;;;14.93;33.93
11912;BME280;6016;41.928;25.556;2023-04-07T10:16:55;98949.69;;;14.41;33.56
11912;BME280;6016;41.928;25.556;2023-04-07T10:19:23;99109.41;;;15.11;32.38
11912;BME280;6016;41.928;25.556;2023-04-07T10:21:52;98986.47;;;14.69;33.48
11912;BME280;6016;41.928;25.556;2023-04-07T10:24:32;99049.03;;;15.44;35.87
11912;BME280;6016;41.928;25.556;2023-04-07T10:27:05;99039.38;;;15.52;32.61
11912;BME280;6016;41.928;25.556;2023-04-07T10:29:34;99043.94;;;15.35;32.94
11912;BME280;6016;41.928;25.556;2023-04-07T10:32:04;98981.84;;;14.79;33.76
11912;BME280;6016;41.928;25.556;2023-04-07T10:35:05;99044.81;;;15.18;32.71
11912;BME280;6016;41.928;25.556;2023-04-07T10:37:32;98886.03;;;14.32;33.57
11912;BME280;6016;41.928;25.556;2023-04-07T10:40:27;99034.69;;;15.54;32.68
11912;BME280;6016;41.928;25.556;2023-04-07T10:42:54;99040.00;;;15.62;33.19
11912;BME280;6016;41.928;25.556;2023-04-07T10:45:53;99042.44;;;15.32;33.42
11912;BME280;6016;41.928;25.556;2023-04-07T10:48:22;99029.41;;;15.45;34.72
11912;BME280;6016;41.928;25.556;2023-04-07T10:51:11;99041.91;;;15.77;33.65
11912;BME280;6016;41.928;25.556;2023-04-07T10:57:10;99032.56;;;16.12;33.29
11912;BME280;6016;41.928;25.556;2023-04-07T10:59:39;99033.75;;;16.33;32.77
11912;BME280;6016;41.928;25.556;2023-04-07T11:02:32;99031.28;;;16.23;32.73
11912;BME280;6016;41.928;25.556;2023-04-07T11:05:00;99024.81;;;16.26;32.53
11912;BME280;6016;41.928;25.556;2023-04-07T11:07:50;99027.09;;;16.67;33.35
11912;BME280;6016;41.928;25.556;2023-04-07T11:10:19;99025.66;;;16.41;32.80
11912;BME280;6016;41.928;25.556;2023-04-07T11:13:01;99004.19;;;16.43;34.04
11912;BME280;6016;41.928;25.556;2023-04-07T11:15:28;98993.78;;;16.86;32.35
11912;BME280;6016;41.928;25.556;2023-04-07T11:18:15;98958.25;;;16.79;32.72
11912;BME280;6016;41.928;25.556;2023-04-07T11:20:46;99021.53;;;17.37;32.15
11912;BME280;6016;41.928;25.556;2023-04-07T11:23:14;98985.72;;;17.10;32.84
11912;BME280;6016;41.928;25.556;2023-04-07T11:25:42;99025.28;;;16.98;32.71
11912;BME280;6016;41.928;25.556;2023-04-07T11:28:11;98930.38;;;16.22;33.02
11912;BME280;6016;41.928;25.556;2023-04-07T11:30:44;98972.25;;;16.05;32.54
11912;BME280;6016;41.928;25.556;2023-04-07T11:33:14;99019.19;;;15.97;33.56
11912;BME280;6016;41.928;25.556;2023-04-07T11:35:48;99025.59;;;15.48;33.74
11912;BME280;6016;41.928;25.556;2023-04-07T11:38:15;99025.06;;;15.13;34.80
11912;BME280;6016;41.928;25.556;2023-04-07T11:40:42;99033.41;;;15.01;34.78
11912;BME280;6016;41.928;25.556;2023-04-07T11:43:16;98889.56;;;13.83;35.89
11912;BME280;6016;41.928;25.556;2023-04-07T11:45:43;99029.78;;;14.77;35.38
11912;BME280;6016;41.928;25.556;2023-04-07T11:48:26;98944.44;;;13.99;35.53
11912;BME280;6016;41.928;25.556;2023-04-07T11:50:54;99023.97;;;14.57;37.20
11912;BME280;6016;41.928;25.556;2023-04-07T11:53:25;98984.88;;;14.26;37.39
11912;BME280;6016;41.928;25.556;2023-04-07T11:56:03;99029.94;;;14.68;37.54
11912;BME280;6016;41.928;25.556;2023-04-07T11:58:32;99024.97;;;14.81;38.36
11912;BME280;6016;41.928;25.556;2023-04-07T12:01:00;99019.88;;;15.28;37.93
11912;BME280;6016;41.928;25.556;2023-04-07T12:03:31;98818.38;;;14.28;36.07
11912;BME280;6016;41.928;25.556;2023-04-07T12:05:59;98858.19;;;14.20;37.36
11912;BME280;6016;41.928;25.556;2023-04-07T12:08:39;99006.38;;;14.81;38.16
11912;BME280;6016;41.928;25.556;2023-04-07T12:11:06;99008.69;;;14.84;38.70
11912;BME280;6016;41.928;25.556;2023-04-07T12:13:34;99006.91;;;14.68;39.04
11912;BME280;6016;41.928;25.556;2023-04-07T12:16:02;98951.06;;;14.12;38.77
11912;BME280;6016;41.928;25.556;2023-04-07T12:18:30;98961.81;;;14.02;39.32
11912;BME280;6016;41.928;25.556;2023-04-07T12:20:57;99023.66;;;14.44;39.16
11912;BME280;6016;41.928;25.556;2023-04-07T12:23:26;99015.56;;;14.29;40.13
11912;BME280;6016;41.928;25.556;2023-04-07T12:25:53;99013.41;;;14.24;41.09
11912;BME280;6016;41.928;25.556;2023-04-07T12:28:20;98978.06;;;14.15;40.84
11912;BME280;6016;41.928;25.556;2023-04-07T12:30:46;99013.56;;;14.31;41.46
11912;BME280;6016;41.928;25.556;2023-04-07T12:33:13;99018.84;;;14.06;41.75
11912;BME280;6016;41.928;25.556;2023-04-07T12:35:40;99008.91;;;14.08;42.33
11912;BME280;6016;41.928;25.556;2023-04-07T12:38:07;99014.38;;;14.15;41.95
11912;BME280;6016;41.928;25.556;2023-04-07T12:40:35;99005.13;;;14.35;42.59
11912;BME280;6016;41.928;25.556;2023-04-07T12:43:02;99009.56;;;14.27;41.38
11912;BME280;6016;41.928;25.556;2023-04-07T12:45:30;98999.13;;;14.17;42.49
11912;BME280;6016;41.928;25.556;2023-04-07T12:47:57;99001.13;;;14.23;42.38
11912;BME280;6016;41.928;25.556;2023-04-07T12:50:24;98998.78;;;14.20;42.00
11912;BME280;6016;41.928;25.556;2023-04-07T12:52:51;98996.63;;;14.15;41.94
11912;BME280;6016;41.928;25.556;2023-04-07T12:55:18;98948.75;;;14.00;42.26
11912;BME280;6016;41.928;25.556;2023-04-07T12:57:46;98994.81;;;14.24;42.31
11912;BME280;6016;41.928;25.556;2023-04-07T13:00:13;98965.13;;;13.87;42.09
11912;BME280;6016;41.928;25.556;2023-04-07T13:02:41;98888.41;;;13.61;41.46
11912;BME280;6016;41.928;25.556;2023-04-07T13:05:08;98982.66;;;14.63;42.06
11912;BME280;6016;41.928;25.556;2023-04-07T13:07:35;98978.09;;;15.13;41.39
11912;BME280;6016;41.928;25.556;2023-04-07T13:10:02;98897.31;;;14.91;40.47
11912;BME280;6016;41.928;25.556;2023-04-07T13:12:30;98889.06;;;15.09;39.80
11912;BME280;6016;41.928;25.556;2023-04-07T13:14:58;98852.56;;;14.71;39.86
11912;BME280;6016;41.928;25.556;2023-04-07T13:17:25;98885.63;;;14.60;40.45
11912;BME280;6016;41.928;25.556;2023-04-07T13:19:54;98977.16;;;14.89;41.58
11912;BME280;6016;41.928;25.556;2023-04-07T13:22:21;98820.97;;;13.72;42.18